createdAt,value
2019-02-23T00:00:13.739Z,9.83
2019-02-23T00:02:41.313Z,10.43
2019-02-23T00:05:09.470Z,10.70
2019-02-23T00:07:37.070Z,10.40
2019-02-23T00:10:05.022Z,14.10
2019-02-23T00:12:32.605Z,12.47
2019-02-23T00:15:00.992Z,12.87
2019-02-23T00:17:29.364Z,11.50
2019-02-23T00:19:57.718Z,11.50
2019-02-23T00:22:25.329Z,9.43
2019-02-23T00:24:52.904Z,10.50
2019-02-23T00:27:20.517Z,9.60
2019-02-23T00:29:48.121Z,10.20
2019-02-23T00:32:15.726Z,9.07
2019-02-23T00:34:43.810Z,9.43
2019-02-23T00:37:12.472Z,9.13
2019-02-23T00:39:40.079Z,9.97
2019-02-23T00:42:07.652Z,9.17
2019-02-23T00:44:35.249Z,10.00
2019-02-23T00:47:02.898Z,9.30
2019-02-23T00:49:36.192Z,9.87
2019-02-23T00:51:58.064Z,10.13
2019-02-23T00:54:25.676Z,9.50
2019-02-23T00:56:53.273Z,9.07
2019-02-23T00:59:20.893Z,9.40
2019-02-23T01:01:48.477Z,8.90
2019-02-23T01:04:16.054Z,9.13
2019-02-23T01:06:43.655Z,9.30
2019-02-23T01:09:11.590Z,9.60
2019-02-23T01:11:39.205Z,9.30
2019-02-23T01:14:06.782Z,9.27
2019-02-23T01:16:34.370Z,9.53
2019-02-23T01:19:02.341Z,12.50
2019-02-23T01:21:29.920Z,11.53
2019-02-23T01:23:57.560Z,12.50
2019-02-23T01:26:25.144Z,10.17
2019-02-23T01:28:52.712Z,10.93
2019-02-23T01:31:20.331Z,11.23
2019-02-23T01:33:47.914Z,13.80
2019-02-23T01:36:15.495Z,10.63
2019-02-23T01:38:43.093Z,8.17
2019-02-23T01:41:10.671Z,8.90
2019-02-23T01:43:38.263Z,9.93
2019-02-23T01:46:05.868Z,9.10
2019-02-23T01:48:34.216Z,9.57
2019-02-23T01:51:01.830Z,8.83
2019-02-23T01:53:29.433Z,9.50
2019-02-23T01:55:57.013Z,9.43
2019-02-23T01:58:24.608Z,9.00
2019-02-23T02:00:52.229Z,9.07
2019-02-23T02:03:19.813Z,9.60
2019-02-23T02:05:48.158Z,9.53
2019-02-23T02:08:15.797Z,8.77
2019-02-23T02:10:43.370Z,10.10
2019-02-23T02:13:10.951Z,8.80
2019-02-23T02:15:38.578Z,8.23
2019-02-23T02:18:06.163Z,9.23
2019-02-23T02:20:36.744Z,8.70
2019-02-23T02:23:04.318Z,8.37
2019-02-23T02:25:31.900Z,7.97
2019-02-23T02:27:59.483Z,8.43
2019-02-23T02:30:27.658Z,8.47
2019-02-23T02:32:55.239Z,7.80
2019-02-23T02:35:22.820Z,7.73
2019-02-23T02:37:50.429Z,11.43
2019-02-23T02:40:18.003Z,8.93
2019-02-23T02:42:45.581Z,9.10
2019-02-23T02:45:13.186Z,8.33
2019-02-23T02:47:40.783Z,9.20
2019-02-23T02:50:08.406Z,8.97
2019-02-23T02:52:35.988Z,7.83
2019-02-23T02:55:03.571Z,8.97
2019-02-23T02:57:31.172Z,9.00
2019-02-23T02:59:59.512Z,8.13
2019-02-23T03:02:27.164Z,11.18
2019-02-23T03:04:55.479Z,9.10
2019-02-23T03:07:23.059Z,7.87
2019-02-23T03:09:50.661Z,10.47
2019-02-23T03:12:18.249Z,11.52
2019-02-23T03:14:45.861Z,8.73
2019-02-23T03:17:13.448Z,7.97
2019-02-23T03:19:41.035Z,7.87
2019-02-23T03:22:10.013Z,8.03
2019-02-23T03:24:37.594Z,8.33
2019-02-23T03:27:05.233Z,7.63
2019-02-23T03:29:32.793Z,7.40
2019-02-23T03:32:00.378Z,7.40
2019-02-23T03:34:27.982Z,7.53
2019-02-23T03:36:56.329Z,10.27
2019-02-23T03:39:23.948Z,8.90
2019-02-23T03:41:51.537Z,11.10
2019-02-23T03:44:19.127Z,8.67
2019-02-23T03:46:46.730Z,8.13
2019-02-23T03:49:14.386Z,6.90
2019-02-23T03:51:41.921Z,7.77
2019-02-23T03:54:10.274Z,8.03
2019-02-23T03:56:37.863Z,7.97
2019-02-23T03:59:06.710Z,11.07
2019-02-23T04:01:34.578Z,8.07
2019-02-23T04:04:02.433Z,7.67
2019-02-23T04:06:30.037Z,7.83
2019-02-23T04:08:57.625Z,7.90
2019-02-23T04:11:25.990Z,7.97
2019-02-23T04:13:54.339Z,8.70
2019-02-23T04:16:21.951Z,8.97
2019-02-23T04:18:49.544Z,8.33
2019-02-23T04:21:17.118Z,9.00
2019-02-23T04:23:44.718Z,8.87
2019-02-23T04:26:15.044Z,9.30
2019-02-23T04:28:42.725Z,9.17
2019-02-23T04:31:10.271Z,9.57
2019-02-23T04:33:38.626Z,13.23
2019-02-23T04:36:06.227Z,23.83
2019-02-23T04:38:33.817Z,18.70
2019-02-23T04:41:01.445Z,16.83
2019-02-23T04:43:29.031Z,13.00
2019-02-23T04:45:56.647Z,11.23
2019-02-23T04:48:24.280Z,11.53
2019-02-23T04:50:51.858Z,10.10
2019-02-23T04:53:19.476Z,10.23
2019-02-23T04:55:47.072Z,9.00
2019-02-23T04:58:14.657Z,10.00
2019-02-23T05:00:44.925Z,9.67
2019-02-23T05:03:09.846Z,8.83
2019-02-23T05:05:37.461Z,9.10
2019-02-23T05:08:05.809Z,8.77
2019-02-23T05:10:33.381Z,9.03
2019-02-23T05:13:00.986Z,11.87
2019-02-23T05:15:28.570Z,9.67
2019-02-23T05:17:56.647Z,8.73
2019-02-23T05:20:24.229Z,8.37
2019-02-23T05:22:51.802Z,8.07
2019-02-23T05:25:19.409Z,8.73
2019-02-23T05:27:46.983Z,8.13
2019-02-23T05:30:14.608Z,8.77
2019-02-23T05:32:42.951Z,10.97
2019-02-23T05:35:11.008Z,9.03
2019-02-23T05:37:38.613Z,12.73
2019-02-23T05:40:06.958Z,9.53
2019-02-23T05:42:34.591Z,9.93
2019-02-23T05:45:02.166Z,9.17
2019-02-23T05:47:29.760Z,9.57
2019-02-23T05:49:57.375Z,9.57
2019-02-23T05:52:24.960Z,11.87
2019-02-23T05:54:52.958Z,10.50
2019-02-23T05:57:20.566Z,10.07
2019-02-23T05:59:48.144Z,13.80
2019-02-23T06:02:15.754Z,10.20
2019-02-23T06:04:43.335Z,9.33
2019-02-23T06:07:11.724Z,9.70
2019-02-23T06:09:39.320Z,10.20
2019-02-23T06:12:06.897Z,9.87
2019-02-23T06:14:34.496Z,9.10
2019-02-23T06:17:04.024Z,8.70
2019-02-23T06:19:29.680Z,10.33
2019-02-23T06:21:57.255Z,8.90
2019-02-23T06:24:24.843Z,10.33
2019-02-23T06:26:53.222Z,14.90
2019-02-23T06:29:21.963Z,12.33
2019-02-23T06:31:49.591Z,11.87
2019-02-23T06:34:17.228Z,11.63
2019-02-23T06:36:44.799Z,11.53
2019-02-23T06:39:12.404Z,17.40
2019-02-23T06:41:39.996Z,12.23
2019-02-23T06:44:07.639Z,12.57
2019-02-23T06:46:35.210Z,12.43
2019-02-23T06:49:02.785Z,11.47
2019-02-23T06:51:30.397Z,11.50
2019-02-23T06:53:57.973Z,12.47
2019-02-23T06:56:25.593Z,12.17
2019-02-23T06:58:53.938Z,11.97
2019-02-23T07:01:21.521Z,11.40
2019-02-23T07:03:49.131Z,10.60
2019-02-23T07:06:16.724Z,12.03
2019-02-23T07:08:44.353Z,12.67
2019-02-23T07:11:11.940Z,12.47
2019-02-23T07:13:39.526Z,10.93
2019-02-23T07:16:07.137Z,12.50
2019-02-23T07:18:34.716Z,12.30
2019-02-23T07:21:02.340Z,12.53
2019-02-23T07:23:29.932Z,13.17
2019-02-23T07:25:57.508Z,13.67
2019-02-23T07:28:25.123Z,13.97
2019-02-23T07:30:53.468Z,13.97
2019-02-23T07:33:32.402Z,13.53
2019-02-23T07:35:48.688Z,20.93
2019-02-23T07:38:16.264Z,14.97
2019-02-23T07:40:43.871Z,20.00
2019-02-23T07:43:11.456Z,15.07
2019-02-23T07:45:39.116Z,14.80
2019-02-23T07:48:06.845Z,14.07
2019-02-23T07:50:34.432Z,12.80
2019-02-23T07:53:02.046Z,12.93
2019-02-23T07:55:30.393Z,13.30
2019-02-23T07:57:58.339Z,12.70
2019-02-23T08:00:25.925Z,13.03
2019-02-23T08:02:53.515Z,12.97
2019-02-23T08:05:21.943Z,12.97
2019-02-23T08:07:50.272Z,12.80
2019-02-23T08:10:17.891Z,12.97
2019-02-23T08:12:45.482Z,12.60
2019-02-23T08:15:13.085Z,12.70
2019-02-23T08:17:41.450Z,17.97
2019-02-23T08:20:10.189Z,13.77
2019-02-23T08:22:37.792Z,12.37
2019-02-23T08:25:05.856Z,13.10
2019-02-23T08:27:33.446Z,12.33
2019-02-23T08:30:01.798Z,11.43
2019-02-23T08:32:29.401Z,12.47
2019-02-23T08:34:56.971Z,17.03
2019-02-23T08:37:24.596Z,13.73
2019-02-23T08:39:52.180Z,13.33
2019-02-23T08:42:19.762Z,13.00
2019-02-23T08:44:47.376Z,13.00
2019-02-23T08:47:14.958Z,17.10
2019-02-23T08:49:42.571Z,18.48
2019-02-23T08:52:10.735Z,14.93
2019-02-23T08:54:38.328Z,12.93
2019-02-23T08:57:05.945Z,11.63
2019-02-23T08:59:33.532Z,12.50
2019-02-23T09:02:01.165Z,11.67
2019-02-23T09:04:28.747Z,13.73
2019-02-23T09:06:56.335Z,12.17
2019-02-23T09:09:23.939Z,13.03
2019-02-23T09:11:51.517Z,15.03
2019-02-23T09:14:19.137Z,12.67
2019-02-23T09:16:47.490Z,12.50
2019-02-23T09:19:15.387Z,13.30
2019-02-23T09:21:43.789Z,15.15
2019-02-23T09:24:11.348Z,12.40
2019-02-23T09:26:38.967Z,11.07
2019-02-23T09:29:06.862Z,11.63
2019-02-23T09:31:35.213Z,11.23
2019-02-23T09:34:02.821Z,11.40
2019-02-23T09:36:30.398Z,11.00
2019-02-23T09:38:58.638Z,11.07
2019-02-23T09:41:26.210Z,11.03
2019-02-23T09:43:54.563Z,10.67
2019-02-23T09:46:22.166Z,10.63
2019-02-23T09:48:49.747Z,9.93
2019-02-23T09:51:17.409Z,9.80
2019-02-23T09:53:44.992Z,10.23
2019-02-23T09:56:12.569Z,9.00
2019-02-23T09:58:40.188Z,9.63
2019-02-23T10:01:07.772Z,10.97
2019-02-23T10:03:35.470Z,9.70
2019-02-23T10:06:02.972Z,8.83
2019-02-23T10:08:30.552Z,8.97
2019-02-23T10:10:58.166Z,9.43
2019-02-23T10:13:25.752Z,10.60
2019-02-23T10:15:53.363Z,10.23
2019-02-23T10:18:20.942Z,9.47
2019-02-23T10:20:49.302Z,11.75
2019-02-23T10:23:22.154Z,10.67
2019-02-23T10:25:44.564Z,10.40
2019-02-23T10:28:12.132Z,9.47
2019-02-23T10:30:40.138Z,11.70
2019-02-23T10:33:07.711Z,10.27
2019-02-23T10:35:35.675Z,9.70
2019-02-23T10:38:03.274Z,10.40
2019-02-23T10:40:31.659Z,9.73
2019-02-23T10:43:00.009Z,8.63
2019-02-23T10:45:27.588Z,9.80
2019-02-23T10:47:55.207Z,8.33
2019-02-23T10:50:22.786Z,8.80
2019-02-23T10:52:50.365Z,8.90
2019-02-23T10:55:17.977Z,8.83
2019-02-23T10:57:45.553Z,8.37
2019-02-23T11:00:16.476Z,8.93
2019-02-23T11:02:44.045Z,7.73
2019-02-23T11:05:11.631Z,8.67
2019-02-23T11:07:39.305Z,8.67
2019-02-23T11:10:06.897Z,10.77
2019-02-23T11:12:34.476Z,9.93
2019-02-23T11:15:02.105Z,8.40
2019-02-23T11:17:29.680Z,7.10
2019-02-23T11:19:58.030Z,9.63
2019-02-23T11:22:26.350Z,8.47
2019-02-23T11:24:54.720Z,7.83
2019-02-23T11:27:23.062Z,7.27
2019-02-23T11:29:50.679Z,7.33
2019-02-23T11:32:18.266Z,9.70
2019-02-23T11:34:45.991Z,7.60
2019-02-23T11:37:14.833Z,7.30
2019-02-23T11:39:43.007Z,6.90
2019-02-23T11:42:10.621Z,6.53
2019-02-23T11:44:38.991Z,7.37
2019-02-23T11:47:06.680Z,6.33
2019-02-23T11:49:34.261Z,7.77
2019-02-23T11:52:01.877Z,7.20
2019-02-23T11:54:29.931Z,6.40
2019-02-23T11:56:57.519Z,6.83
2019-02-23T11:59:25.865Z,7.35
2019-02-23T12:01:53.467Z,6.43
2019-02-23T12:04:21.816Z,6.90
2019-02-23T12:06:49.813Z,6.67
2019-02-23T12:09:18.174Z,5.90
2019-02-23T12:11:45.756Z,5.70
2019-02-23T12:14:14.124Z,5.60
2019-02-23T12:16:41.699Z,6.40
2019-02-23T12:19:10.156Z,6.10
2019-02-23T12:21:38.301Z,6.20
2019-02-23T12:24:06.519Z,5.57
2019-02-23T12:26:33.520Z,5.20
2019-02-23T12:29:01.107Z,6.50
2019-02-23T12:31:28.687Z,5.73
2019-02-23T12:33:56.293Z,5.40
2019-02-23T12:36:23.879Z,5.70
2019-02-23T12:38:51.504Z,5.60
2019-02-23T12:41:19.106Z,5.00
2019-02-23T12:43:46.689Z,5.00
2019-02-23T12:46:14.294Z,5.50
2019-02-23T12:48:41.881Z,5.33
2019-02-23T12:51:09.546Z,5.80
2019-02-23T12:53:37.136Z,6.37
2019-02-23T12:56:04.707Z,5.30
2019-02-23T12:58:32.842Z,5.97
2019-02-23T13:01:00.432Z,6.57
2019-02-23T13:03:28.049Z,5.80
2019-02-23T13:05:55.623Z,6.07
2019-02-23T13:08:23.202Z,5.97
2019-02-23T13:10:50.808Z,5.60
2019-02-23T13:13:19.150Z,5.40
2019-02-23T13:15:46.764Z,5.47
2019-02-23T13:18:26.105Z,5.73
2019-02-23T13:21:20.474Z,5.10
2019-02-23T13:23:57.261Z,4.60
2019-02-23T13:26:43.030Z,5.17
2019-02-23T13:29:29.692Z,5.53
2019-02-23T13:32:05.994Z,4.63
2019-02-23T13:34:42.317Z,5.10
2019-02-23T13:37:09.895Z,5.33
2019-02-23T13:39:46.247Z,4.80
2019-02-23T13:42:13.827Z,3.27
2019-02-23T13:45:09.411Z,4.30
2019-02-23T13:47:55.416Z,3.70
2019-02-23T13:50:25.486Z,3.87
2019-02-23T13:53:08.280Z,3.70
2019-02-23T13:55:50.822Z,3.53
2019-02-23T13:58:30.042Z,3.30
2019-02-23T14:01:00.365Z,3.73
2019-02-23T14:03:33.323Z,3.73
2019-02-23T14:06:21.963Z,3.37
2019-02-23T14:09:07.182Z,3.70
2019-02-23T14:11:53.044Z,3.47
2019-02-23T14:14:26.223Z,3.93
2019-02-23T14:17:09.320Z,3.73
2019-02-23T14:19:40.616Z,3.57
2019-02-23T14:22:16.955Z,4.00
2019-02-23T14:24:50.226Z,3.73
2019-02-23T14:27:20.054Z,3.97
2019-02-23T14:29:56.309Z,3.67
2019-02-23T14:32:32.827Z,3.53
2019-02-23T14:35:14.692Z,3.30
2019-02-23T14:37:50.791Z,3.63
2019-02-23T14:40:21.084Z,3.63
2019-02-23T14:43:06.184Z,4.30
2019-02-23T14:45:54.326Z,3.80
2019-02-23T14:48:28.783Z,3.80
2019-02-23T14:51:14.844Z,3.67
2019-02-23T14:53:45.378Z,3.63
2019-02-23T14:56:27.552Z,3.70
2019-02-23T14:59:00.663Z,4.00
2019-02-23T15:01:28.211Z,4.00
2019-02-23T15:04:28.710Z,3.27
2019-02-23T15:07:08.106Z,3.60
2019-02-23T15:09:35.836Z,3.20
2019-02-23T15:12:09.242Z,3.50
2019-02-23T15:14:57.677Z,4.23
2019-02-23T15:17:40.770Z,4.30
2019-02-23T15:20:26.659Z,3.87
2019-02-23T15:23:15.378Z,3.70
2019-02-23T15:25:45.922Z,5.03
2019-02-23T15:28:24.880Z,4.60
2019-02-23T15:30:57.967Z,4.43
2019-02-23T15:33:29.157Z,4.40
2019-02-23T15:36:02.614Z,4.73
2019-02-23T15:38:45.409Z,4.37
2019-02-23T15:41:43.768Z,4.07
2019-02-23T15:44:21.702Z,4.70
2019-02-23T15:47:14.801Z,4.73
2019-02-23T15:49:42.415Z,4.47
2019-02-23T15:52:10.731Z,3.70
2019-02-23T15:54:38.334Z,4.37
2019-02-23T15:57:05.929Z,5.00
2019-02-23T15:59:33.507Z,4.00
2019-02-23T16:02:01.205Z,4.33
2019-02-23T16:04:28.781Z,4.80
2019-02-23T16:06:56.363Z,4.30
2019-02-23T16:09:23.968Z,4.07
2019-02-23T16:11:51.563Z,4.00
2019-02-23T16:14:19.184Z,4.27
2019-02-23T16:16:47.593Z,4.03
2019-02-23T16:19:14.360Z,3.53
2019-02-23T16:21:42.065Z,4.53
2019-02-23T16:24:09.652Z,3.83
2019-02-23T16:26:38.158Z,4.70
2019-02-23T16:29:05.743Z,4.07
2019-02-23T16:31:33.335Z,4.63
2019-02-23T16:34:00.950Z,4.30
2019-02-23T16:36:28.536Z,4.23
2019-02-23T16:38:56.198Z,4.90
2019-02-23T16:41:23.837Z,4.87
2019-02-23T16:43:51.410Z,4.80
2019-02-23T16:46:19.614Z,4.17
2019-02-23T16:48:47.155Z,4.80
2019-02-23T16:51:14.730Z,4.27
2019-02-23T16:53:42.395Z,4.63
2019-02-23T16:56:09.989Z,4.47
2019-02-23T16:58:37.574Z,4.90
2019-02-23T17:01:05.191Z,4.40
2019-02-23T17:03:32.793Z,3.97
2019-02-23T17:06:00.411Z,5.35
2019-02-23T17:08:28.039Z,5.33
2019-02-23T17:10:55.617Z,4.90
2019-02-23T17:13:23.204Z,4.80
2019-02-23T17:15:50.837Z,5.03
2019-02-23T17:18:18.419Z,5.35
2019-02-23T17:20:45.999Z,5.43
2019-02-23T17:23:13.948Z,6.03
2019-02-23T17:25:41.553Z,8.17
2019-02-23T17:28:09.130Z,7.43
2019-02-23T17:30:36.769Z,5.70
2019-02-23T17:33:05.114Z,5.93
2019-02-23T17:35:32.690Z,5.97
2019-02-23T17:38:00.317Z,6.03
2019-02-23T17:40:27.905Z,6.87
2019-02-23T17:42:55.510Z,6.17
2019-02-23T17:45:23.941Z,7.55
2019-02-23T17:47:51.488Z,6.93
2019-02-23T17:50:19.058Z,6.13
2019-02-23T17:52:47.015Z,6.87
2019-02-23T17:55:14.775Z,7.82
2019-02-23T17:57:42.371Z,7.50
2019-02-23T18:00:09.983Z,7.95
2019-02-23T18:02:37.552Z,6.63
2019-02-23T18:05:05.185Z,7.53
2019-02-23T18:07:33.521Z,7.43
2019-02-23T18:10:01.113Z,6.63
2019-02-23T18:12:29.704Z,7.40
2019-02-23T18:14:56.327Z,7.23
2019-02-23T18:17:23.918Z,8.50
2019-02-23T18:19:51.559Z,7.90
2019-02-23T18:22:19.694Z,7.30
2019-02-23T18:24:47.560Z,6.43
2019-02-23T18:27:15.184Z,7.10
2019-02-23T18:29:43.094Z,7.47
2019-02-23T18:32:11.102Z,6.30
2019-02-23T18:34:38.958Z,7.30
2019-02-23T18:37:06.303Z,8.77
2019-02-23T18:39:33.920Z,8.00
2019-02-23T18:42:01.511Z,7.03
2019-02-23T18:44:29.824Z,7.00
2019-02-23T18:46:57.414Z,6.60
2019-02-23T18:49:24.979Z,7.50
2019-02-23T18:51:52.584Z,6.67
2019-02-23T18:54:20.199Z,7.13
2019-02-23T18:56:47.826Z,8.73
2019-02-23T18:59:15.414Z,7.80
2019-02-23T19:01:43.754Z,9.57
2019-02-23T19:04:12.359Z,8.73
2019-02-23T19:06:38.973Z,7.73
2019-02-23T19:09:06.560Z,9.05
2019-02-23T19:11:34.220Z,7.90
2019-02-23T19:14:01.847Z,7.20
2019-02-23T19:16:29.420Z,7.57
2019-02-23T19:18:57.303Z,7.47
2019-02-23T19:21:24.885Z,7.30
2019-02-23T19:23:52.465Z,7.07
2019-02-23T19:26:20.146Z,6.23
2019-02-23T19:28:47.676Z,7.33
2019-02-23T19:31:16.028Z,7.30
2019-02-23T19:33:43.656Z,7.00
2019-02-23T19:36:11.242Z,8.43
2019-02-23T19:38:38.829Z,7.67
2019-02-23T19:41:06.477Z,8.40
2019-02-23T19:43:34.059Z,8.98
2019-02-23T19:46:01.653Z,8.52
2019-02-23T19:48:29.651Z,8.57
2019-02-23T19:50:57.256Z,7.40
2019-02-23T19:53:25.621Z,7.83
2019-02-23T19:55:53.222Z,8.70
2019-02-23T19:58:20.808Z,7.50
2019-02-23T20:00:48.558Z,7.57
2019-02-23T20:03:16.144Z,7.40
2019-02-23T20:05:43.725Z,7.70
2019-02-23T20:08:11.352Z,7.17
2019-02-23T20:10:38.929Z,9.67
2019-02-23T20:13:06.544Z,8.57
2019-02-23T20:15:34.905Z,7.43
2019-02-23T20:18:02.514Z,8.00
2019-02-23T20:20:30.123Z,8.00
2019-02-23T20:22:57.719Z,8.47
2019-02-23T20:25:25.298Z,8.70
2019-02-23T20:27:52.880Z,9.10
2019-02-23T20:30:20.638Z,8.27
2019-02-23T20:32:48.208Z,7.90
2019-02-23T20:35:15.791Z,6.93
2019-02-23T20:37:43.466Z,8.03
2019-02-23T20:40:11.051Z,8.17
2019-02-23T20:42:38.633Z,7.83
2019-02-23T20:45:06.314Z,7.77
2019-02-23T20:47:33.885Z,7.90
2019-02-23T20:50:01.459Z,7.73
2019-02-23T20:52:29.073Z,7.87
2019-02-23T20:54:56.678Z,9.50
2019-02-23T20:57:24.268Z,9.70
2019-02-23T20:59:51.865Z,8.47
2019-02-23T21:02:19.454Z,7.87
2019-02-23T21:04:47.039Z,7.10
2019-02-23T21:07:15.115Z,7.10
2019-02-23T21:09:42.693Z,8.13
2019-02-23T21:12:10.275Z,7.97
2019-02-23T21:14:37.912Z,7.47
2019-02-23T21:17:05.490Z,7.00
2019-02-23T21:19:33.837Z,7.10
2019-02-23T21:22:01.465Z,7.37
2019-02-23T21:24:29.062Z,8.90
2019-02-23T21:26:56.654Z,7.73
2019-02-23T21:29:25.047Z,9.43
2019-02-23T21:31:52.624Z,8.07
2019-02-23T21:34:20.230Z,7.43
2019-02-23T21:36:47.867Z,7.07
2019-02-23T21:39:15.442Z,7.57
2019-02-23T21:41:43.669Z,9.48
2019-02-23T21:44:11.223Z,9.27
2019-02-23T21:46:39.559Z,9.47
2019-02-23T21:49:07.145Z,7.40
2019-02-23T21:51:35.551Z,7.00
2019-02-23T21:54:09.966Z,8.20
2019-02-23T21:56:31.482Z,7.57
2019-02-23T21:58:59.132Z,10.73
2019-02-23T22:01:27.473Z,7.63
2019-02-23T22:03:55.061Z,7.77
2019-02-23T22:06:22.707Z,8.30
2019-02-23T22:08:50.286Z,9.80
2019-02-23T22:11:18.122Z,8.57
2019-02-23T22:13:45.747Z,8.47
2019-02-23T22:16:13.324Z,7.20
2019-02-23T22:18:40.943Z,7.27
2019-02-23T22:21:08.539Z,8.13
2019-02-23T22:23:36.118Z,9.60
2019-02-23T22:26:03.699Z,7.83
2019-02-23T22:28:31.294Z,8.30
2019-02-23T22:30:58.870Z,8.17
2019-02-23T22:33:27.679Z,8.20
2019-02-23T22:35:55.276Z,7.47
2019-02-23T22:38:22.855Z,9.03
2019-02-23T22:40:50.483Z,7.97
2019-02-23T22:43:18.076Z,9.70
2019-02-23T22:45:45.660Z,8.40
2019-02-23T22:48:13.259Z,8.13
2019-02-23T22:50:40.836Z,8.23
2019-02-23T22:53:09.164Z,8.30
2019-02-23T22:55:37.807Z,8.93
2019-02-23T22:58:05.386Z,8.03
2019-02-23T23:00:32.997Z,8.10
2019-02-23T23:03:01.206Z,8.30
2019-02-23T23:05:28.788Z,8.50
2019-02-23T23:07:56.410Z,8.70
2019-02-23T23:10:23.992Z,11.03
2019-02-23T23:12:51.577Z,9.03
2019-02-23T23:15:19.218Z,8.60
2019-02-23T23:17:47.708Z,11.17
2019-02-23T23:20:15.289Z,9.07
2019-02-23T23:22:42.904Z,10.90
2019-02-23T23:25:10.489Z,10.00
2019-02-23T23:27:38.067Z,8.07
2019-02-23T23:30:05.685Z,8.43
2019-02-23T23:32:33.269Z,8.97
2019-02-23T23:35:00.858Z,8.73
2019-02-23T23:37:28.495Z,8.87
2019-02-23T23:39:56.092Z,11.13
2019-02-23T23:42:23.680Z,9.60
2019-02-23T23:44:51.297Z,8.77
2019-02-23T23:47:18.935Z,7.93
2019-02-23T23:49:46.491Z,11.17
2019-02-23T23:52:14.094Z,8.90
2019-02-23T23:54:41.715Z,8.13
2019-02-23T23:57:10.084Z,8.63
2019-02-23T23:59:37.673Z,8.87
